»·PEaware :: AAL1094 KBOS-KDFW

AAL1094 :: KBOS-KDFW

FLIGHT INFORMATION

Flight Status: Arrived
Operator:
American Airlines
More flights by this operator :: More flights under this callsign
Pilot: Kolin J. (28867)
Aircraft: BOEING 737-800
(B738)
More flights by this aircraft type
Origin: KBOS Logan Intl
United States
Destination: KDFW Dallas-Ft Worth Intl
United States
More flights between these airports :: More routes between these airports
Route: BLZZR4 BLZZR BAF Q406 BWZ J6 LIT FEWWW SEEVR4
File this flight plan on PilotEdge
Remarks:
Altitude:
(Current/Filed)
36,000ft
Speed:
(Current/Filed)
450kts
Departed: 15-May-20 09:09 PM
Arrived: 16-May-20 06:18 AM
Distance/Time
Traveled:
1354nm/9:08
Distance/Time
To Go:
Arrived

Flight Plot

Page will automatically refresh every two minutes.

Flight plan parsing failed; only flown route is shown


Map Options




Map Legend


Flown Route
Filed Route
Departure Airport
Arrival Airport
Navaid (VOR, NDB)
Fix

Horizontal Profiles

Position Reports

Time Latitude Longitude Heading Altitude Ground
Speed
15-May-20 20:27 32.906723 -97.035847 221 595ft 0kts
15-May-20 20:28 32.906723 -97.035847 221 595ft 0kts
15-May-20 20:29 32.906723 -97.035847 221 595ft 0kts
15-May-20 20:30 32.906723 -97.035847 221 595ft 0kts
15-May-20 20:31 32.906723 -97.035847 221 595ft 0kts
15-May-20 20:32 32.906723 -97.035847 221 595ft 0kts
15-May-20 20:33 32.906723 -97.035847 221 595ft 0kts
15-May-20 20:34 32.906723 -97.035847 221 595ft 0kts
15-May-20 20:35 32.906723 -97.035847 221 595ft 0kts
15-May-20 20:36 32.906723 -97.035847 221 595ft 0kts
15-May-20 20:37 32.906723 -97.035847 221 595ft 0kts
15-May-20 20:38 32.906723 -97.035847 221 595ft 0kts
15-May-20 20:39 32.906723 -97.035847 221 595ft 0kts
15-May-20 20:40 32.906723 -97.035847 221 595ft 0kts
15-May-20 20:41 32.906723 -97.035847 221 595ft 0kts
15-May-20 20:42 32.906723 -97.035847 221 595ft 0kts
15-May-20 20:43 32.906723 -97.035847 221 595ft 0kts
15-May-20 20:44 32.906723 -97.035847 221 595ft 0kts
15-May-20 20:45 32.906723 -97.035847 221 595ft 0kts
15-May-20 20:46 32.906723 -97.035847 221 595ft 0kts
15-May-20 20:47 32.906723 -97.035847 221 595ft 0kts
15-May-20 20:48 32.906723 -97.035847 221 595ft 0kts
15-May-20 20:49 32.906723 -97.035847 221 595ft 0kts
15-May-20 20:50 32.906723 -97.035847 221 595ft 0kts
15-May-20 20:51 32.906723 -97.035847 221 595ft 0kts
15-May-20 20:52 32.906723 -97.035847 221 595ft 0kts
15-May-20 20:53 32.906723 -97.035847 221 595ft 0kts
15-May-20 20:54 32.906723 -97.035847 221 595ft 0kts
15-May-20 20:55 32.906723 -97.035847 221 595ft 0kts
15-May-20 20:56 32.906723 -97.035847 221 595ft 0kts
15-May-20 20:57 32.906723 -97.035847 221 595ft 0kts
15-May-20 20:58 32.906723 -97.035847 221 595ft 0kts
15-May-20 20:59 32.906723 -97.035847 221 595ft 0kts
15-May-20 21:00 32.906723 -97.035847 221 595ft 0kts
15-May-20 21:01 32.906723 -97.035847 221 595ft 0kts
15-May-20 21:02 32.906723 -97.035847 221 595ft 0kts
15-May-20 21:03 32.906723 -97.035847 221 595ft 0kts
15-May-20 21:04 32.906723 -97.035847 221 595ft 0kts
15-May-20 21:05 32.906723 -97.035847 221 595ft 0kts
15-May-20 21:06 32.906723 -97.035847 221 595ft 0kts
15-May-20 21:07 32.906723 -97.035847 221 595ft 0kts
15-May-20 21:08 32.993983 -97.025556 177 2207ft 150kts
15-May-20 21:09 32.952335 -97.025737 178 1369ft 144kts
15-May-20 21:10 32.926978 -97.025987 178 836ft 145kts
15-May-20 21:11 32.914891 -97.025999 177 586ft 143kts
15-May-20 21:12 32.923614 -97.026046 177 758ft 145kts
15-May-20 21:13 32.919918 -97.026037 176 678ft 144kts
15-May-20 21:14 32.919918 -97.026037 176 678ft 144kts
15-May-20 21:15 32.910002 -97.025997 178 564ft 110kts
15-May-20 21:16 32.910002 -97.025997 178 564ft 110kts
15-May-20 21:17 32.910002 -97.025997 178 564ft 110kts
15-May-20 21:18 32.910002 -97.025997 178 564ft 110kts
15-May-20 21:19 32.910002 -97.025997 178 564ft 110kts
15-May-20 21:20 32.910002 -97.025997 178 564ft 110kts
15-May-20 21:21 32.910002 -97.025997 178 564ft 110kts
15-May-20 21:22 32.910002 -97.025997 178 564ft 110kts
15-May-20 21:23 32.910002 -97.025997 178 564ft 110kts
15-May-20 21:24 32.910002 -97.025997 178 564ft 110kts
15-May-20 21:25 32.910002 -97.025997 178 564ft 110kts
15-May-20 21:27 32.910002 -97.025997 178 564ft 110kts
15-May-20 21:28 32.910002 -97.025997 178 564ft 110kts
15-May-20 21:29 32.910002 -97.025997 178 564ft 110kts
15-May-20 21:30 32.910002 -97.025997 178 564ft 110kts
15-May-20 21:31 32.910002 -97.025997 178 564ft 110kts
15-May-20 21:32 32.910002 -97.025997 178 564ft 110kts
15-May-20 21:33 32.910002 -97.025997 178 564ft 110kts
15-May-20 21:34 32.910002 -97.025997 178 564ft 110kts
15-May-20 21:35 32.910002 -97.025997 178 564ft 110kts
15-May-20 21:36 32.910002 -97.025997 178 564ft 110kts
15-May-20 21:37 32.910002 -97.025997 178 564ft 110kts
15-May-20 21:38 32.910002 -97.025997 178 564ft 110kts
15-May-20 21:39 32.910002 -97.025997 178 564ft 110kts
15-May-20 21:40 32.910002 -97.025997 178 564ft 110kts
15-May-20 21:40 32.910002 -97.025997 178 564ft 110kts
15-May-20 21:42 32.910002 -97.025997 178 564ft 110kts
15-May-20 21:43 32.910002 -97.025997 178 564ft 110kts
15-May-20 21:43 32.910002 -97.025997 178 564ft 110kts
15-May-20 21:45 32.910002 -97.025997 178 564ft 110kts
15-May-20 21:45 32.910002 -97.025997 178 564ft 110kts
15-May-20 21:46 32.910002 -97.025997 178 564ft 110kts
15-May-20 21:48 32.910002 -97.025997 178 564ft 110kts
15-May-20 21:48 32.910002 -97.025997 178 564ft 110kts
15-May-20 21:49 32.910002 -97.025997 178 564ft 110kts
15-May-20 21:50 32.910002 -97.025997 178 564ft 110kts
15-May-20 21:51 32.910002 -97.025997 178 564ft 110kts
15-May-20 21:52 32.910002 -97.025997 178 564ft 110kts
15-May-20 21:53 32.910002 -97.025997 178 564ft 110kts
15-May-20 21:54 32.910002 -97.025997 178 564ft 110kts
15-May-20 21:55 32.910002 -97.025997 178 564ft 110kts
15-May-20 21:56 32.910002 -97.025997 178 564ft 110kts
15-May-20 21:57 32.910002 -97.025997 178 564ft 110kts
15-May-20 21:58 32.910002 -97.025997 178 564ft 110kts
15-May-20 21:59 32.910002 -97.025997 178 564ft 110kts
15-May-20 22:00 32.910002 -97.025997 178 564ft 110kts
15-May-20 22:01 32.910002 -97.025997 178 564ft 110kts
15-May-20 22:02 32.910002 -97.025997 178 564ft 110kts
15-May-20 22:03 32.910002 -97.025997 178 564ft 110kts
15-May-20 22:04 32.910002 -97.025997 178 564ft 110kts
15-May-20 22:05 32.910002 -97.025997 178 564ft 110kts
15-May-20 22:06 32.910002 -97.025997 178 564ft 110kts
15-May-20 22:07 32.910002 -97.025997 178 564ft 110kts
15-May-20 22:08 32.910002 -97.025997 178 564ft 110kts
15-May-20 22:09 32.910002 -97.025997 178 564ft 110kts
15-May-20 22:10 32.910002 -97.025997 178 564ft 110kts
15-May-20 22:11 32.910002 -97.025997 178 564ft 110kts
15-May-20 22:12 32.910002 -97.025997 178 564ft 110kts
15-May-20 22:13 32.910002 -97.025997 178 564ft 110kts
15-May-20 22:14 32.910002 -97.025997 178 564ft 110kts
15-May-20 22:15 32.910002 -97.025997 178 564ft 110kts
15-May-20 22:16 32.910002 -97.025997 178 564ft 110kts
15-May-20 22:17 32.910002 -97.025997 178 564ft 110kts
15-May-20 22:18 32.910002 -97.025997 178 564ft 110kts
15-May-20 22:19 32.910002 -97.025997 178 564ft 110kts
15-May-20 22:20 32.910002 -97.025997 178 564ft 110kts
15-May-20 22:21 32.910002 -97.025997 178 564ft 110kts
15-May-20 22:22 32.910002 -97.025997 178 564ft 110kts
15-May-20 22:23 32.910002 -97.025997 178 564ft 110kts
15-May-20 22:24 32.910002 -97.025997 178 564ft 110kts
15-May-20 22:25 32.910002 -97.025997 178 564ft 110kts
15-May-20 22:26 32.910002 -97.025997 178 564ft 110kts
15-May-20 22:27 32.910002 -97.025997 178 564ft 110kts
15-May-20 22:28 32.910002 -97.025997 178 564ft 110kts
15-May-20 22:29 32.910002 -97.025997 178 564ft 110kts
15-May-20 22:30 32.910002 -97.025997 178 564ft 110kts
15-May-20 22:31 32.910002 -97.025997 178 564ft 110kts
15-May-20 22:32 32.910002 -97.025997 178 564ft 110kts
15-May-20 22:33 32.910002 -97.025997 178 564ft 110kts
15-May-20 22:34 32.910002 -97.025997 178 564ft 110kts
15-May-20 22:35 32.910002 -97.025997 178 564ft 110kts
15-May-20 22:36 32.910002 -97.025997 178 564ft 110kts
15-May-20 22:37 32.910002 -97.025997 178 564ft 110kts
15-May-20 22:38 32.910002 -97.025997 178 564ft 110kts
15-May-20 22:39 32.910002 -97.025997 178 564ft 110kts
15-May-20 22:40 32.910002 -97.025997 178 564ft 110kts
15-May-20 22:41 32.910002 -97.025997 178 564ft 110kts
15-May-20 22:42 32.910002 -97.025997 178 564ft 110kts
15-May-20 22:43 32.910002 -97.025997 178 564ft 110kts
15-May-20 22:44 32.910002 -97.025997 178 564ft 110kts
15-May-20 22:45 32.910002 -97.025997 178 564ft 110kts
15-May-20 22:46 32.910002 -97.025997 178 564ft 110kts
15-May-20 22:47 32.910002 -97.025997 178 564ft 110kts
15-May-20 22:48 32.910002 -97.025997 178 564ft 110kts
15-May-20 22:49 32.910002 -97.025997 178 564ft 110kts
15-May-20 22:50 32.910002 -97.025997 178 564ft 110kts
15-May-20 22:51 32.910002 -97.025997 178 564ft 110kts
15-May-20 22:52 32.910002 -97.025997 178 564ft 110kts
15-May-20 22:53 32.910002 -97.025997 178 564ft 110kts
15-May-20 22:54 32.910002 -97.025997 178 564ft 110kts
15-May-20 22:55 32.910002 -97.025997 178 564ft 110kts
15-May-20 22:56 32.910002 -97.025997 178 564ft 110kts
15-May-20 22:57 32.910002 -97.025997 178 564ft 110kts
15-May-20 22:58 32.910002 -97.025997 178 564ft 110kts
15-May-20 22:59 32.910002 -97.025997 178 564ft 110kts
15-May-20 23:00 32.910002 -97.025997 178 564ft 110kts
15-May-20 23:01 32.910002 -97.025997 178 564ft 110kts
15-May-20 23:02 32.910002 -97.025997 178 564ft 110kts
15-May-20 23:03 32.910002 -97.025997 178 564ft 110kts
15-May-20 23:04 32.910002 -97.025997 178 564ft 110kts
15-May-20 23:05 32.910002 -97.025997 178 564ft 110kts
15-May-20 23:06 32.910002 -97.025997 178 564ft 110kts
15-May-20 23:07 32.910002 -97.025997 178 564ft 110kts
15-May-20 23:08 32.910002 -97.025997 178 564ft 110kts
15-May-20 23:09 32.910002 -97.025997 178 564ft 110kts
15-May-20 23:10 32.910002 -97.025997 178 564ft 110kts
15-May-20 23:11 32.910002 -97.025997 178 564ft 110kts
15-May-20 23:12 32.910002 -97.025997 178 564ft 110kts
15-May-20 23:13 32.910002 -97.025997 178 564ft 110kts
15-May-20 23:14 32.910002 -97.025997 178 564ft 110kts
15-May-20 23:15 32.910002 -97.025997 178 564ft 110kts
15-May-20 23:16 32.910002 -97.025997 178 564ft 110kts
15-May-20 23:17 32.910002 -97.025997 178 564ft 110kts
15-May-20 23:18 32.910002 -97.025997 178 564ft 110kts
15-May-20 23:19 32.910002 -97.025997 178 564ft 110kts
15-May-20 23:20 32.910002 -97.025997 178 564ft 110kts
15-May-20 23:21 32.910002 -97.025997 178 564ft 110kts
15-May-20 23:22 32.910002 -97.025997 178 564ft 110kts
15-May-20 23:23 32.910002 -97.025997 178 564ft 110kts
15-May-20 23:24 32.910002 -97.025997 178 564ft 110kts
15-May-20 23:25 32.910002 -97.025997 178 564ft 110kts
15-May-20 23:26 32.910002 -97.025997 178 564ft 110kts
15-May-20 23:28 32.910002 -97.025997 178 564ft 110kts
15-May-20 23:29 32.910002 -97.025997 178 564ft 110kts
15-May-20 23:30 32.910002 -97.025997 178 564ft 110kts
15-May-20 23:31 32.910002 -97.025997 178 564ft 110kts
15-May-20 23:32 32.910002 -97.025997 178 564ft 110kts
15-May-20 23:33 32.910002 -97.025997 178 564ft 110kts
15-May-20 23:34 32.910002 -97.025997 178 564ft 110kts
15-May-20 23:35 32.910002 -97.025997 178 564ft 110kts
15-May-20 23:36 32.910002 -97.025997 178 564ft 110kts
15-May-20 23:37 32.910002 -97.025997 178 564ft 110kts
15-May-20 23:38 32.910002 -97.025997 178 564ft 110kts
15-May-20 23:39 32.910002 -97.025997 178 564ft 110kts
15-May-20 23:40 32.910002 -97.025997 178 564ft 110kts
15-May-20 23:41 32.910002 -97.025997 178 564ft 110kts
15-May-20 23:42 32.910002 -97.025997 178 564ft 110kts
15-May-20 23:43 32.910002 -97.025997 178 564ft 110kts
15-May-20 23:44 32.910002 -97.025997 178 564ft 110kts
15-May-20 23:45 32.910002 -97.025997 178 564ft 110kts
15-May-20 23:45 32.910002 -97.025997 178 564ft 110kts
15-May-20 23:47 32.910002 -97.025997 178 564ft 110kts
15-May-20 23:47 32.910002 -97.025997 178 564ft 110kts
15-May-20 23:49 32.910002 -97.025997 178 564ft 110kts
15-May-20 23:49 32.910002 -97.025997 178 564ft 110kts
15-May-20 23:50 32.910002 -97.025997 178 564ft 110kts
15-May-20 23:51 32.910002 -97.025997 178 564ft 110kts
15-May-20 23:52 32.910002 -97.025997 178 564ft 110kts
15-May-20 23:53 32.910002 -97.025997 178 564ft 110kts
15-May-20 23:54 32.910002 -97.025997 178 564ft 110kts
15-May-20 23:55 32.910002 -97.025997 178 564ft 110kts
15-May-20 23:56 32.910002 -97.025997 178 564ft 110kts
15-May-20 23:57 32.910002 -97.025997 178 564ft 110kts
15-May-20 23:58 32.910002 -97.025997 178 564ft 110kts
15-May-20 23:59 32.910002 -97.025997 178 564ft 110kts
16-May-20 00:00 32.910002 -97.025997 178 564ft 110kts
16-May-20 00:01 32.910002 -97.025997 178 564ft 110kts
16-May-20 00:02 32.910002 -97.025997 178 564ft 110kts
16-May-20 00:03 32.910002 -97.025997 178 564ft 110kts
16-May-20 00:04 32.910002 -97.025997 178 564ft 110kts
16-May-20 00:05 32.910002 -97.025997 178 564ft 110kts
16-May-20 00:06 32.910002 -97.025997 178 564ft 110kts
16-May-20 00:07 32.910002 -97.025997 178 564ft 110kts
16-May-20 00:08 32.910002 -97.025997 178 564ft 110kts
16-May-20 00:09 32.910002 -97.025997 178 564ft 110kts
16-May-20 00:10 32.910002 -97.025997 178 564ft 110kts
16-May-20 00:11 32.910002 -97.025997 178 564ft 110kts
16-May-20 00:12 32.910002 -97.025997 178 564ft 110kts
16-May-20 00:13 32.910002 -97.025997 178 564ft 110kts
16-May-20 00:14 32.910002 -97.025997 178 564ft 110kts
16-May-20 00:15 32.910002 -97.025997 178 564ft 110kts
16-May-20 00:16 32.910002 -97.025997 178 564ft 110kts
16-May-20 00:17 32.910002 -97.025997 178 564ft 110kts
16-May-20 00:18 32.910002 -97.025997 178 564ft 110kts
16-May-20 00:19 32.910002 -97.025997 178 564ft 110kts
16-May-20 00:20 32.910002 -97.025997 178 564ft 110kts
16-May-20 00:21 32.910002 -97.025997 178 564ft 110kts
16-May-20 00:22 32.910002 -97.025997 178 564ft 110kts
16-May-20 00:23 32.910002 -97.025997 178 564ft 110kts
16-May-20 00:24 32.910002 -97.025997 178 564ft 110kts
16-May-20 00:25 32.910002 -97.025997 178 564ft 110kts
16-May-20 00:26 32.910002 -97.025997 178 564ft 110kts
16-May-20 00:27 32.910002 -97.025997 178 564ft 110kts
16-May-20 00:28 32.910002 -97.025997 178 564ft 110kts
16-May-20 00:29 32.910002 -97.025997 178 564ft 110kts
16-May-20 00:30 32.910002 -97.025997 178 564ft 110kts
16-May-20 00:31 32.910002 -97.025997 178 564ft 110kts
16-May-20 00:32 32.910002 -97.025997 178 564ft 110kts
16-May-20 00:33 32.910002 -97.025997 178 564ft 110kts
16-May-20 00:34 32.910002 -97.025997 178 564ft 110kts
16-May-20 00:35 32.910002 -97.025997 178 564ft 110kts
16-May-20 00:36 32.910002 -97.025997 178 564ft 110kts
16-May-20 00:37 32.910002 -97.025997 178 564ft 110kts
16-May-20 00:38 32.910002 -97.025997 178 564ft 110kts
16-May-20 00:39 32.910002 -97.025997 178 564ft 110kts
16-May-20 00:40 32.910002 -97.025997 178 564ft 110kts
16-May-20 00:41 32.910002 -97.025997 178 564ft 110kts
16-May-20 00:42 32.910002 -97.025997 178 564ft 110kts
16-May-20 00:43 32.910002 -97.025997 178 564ft 110kts
16-May-20 00:44 32.910002 -97.025997 178 564ft 110kts
16-May-20 00:45 32.910002 -97.025997 178 564ft 110kts
16-May-20 00:46 32.910002 -97.025997 178 564ft 110kts
16-May-20 00:47 32.910002 -97.025997 178 564ft 110kts
16-May-20 00:48 32.910002 -97.025997 178 564ft 110kts
16-May-20 00:49 32.910002 -97.025997 178 564ft 110kts
16-May-20 00:50 32.910002 -97.025997 178 564ft 110kts
16-May-20 00:51 32.910002 -97.025997 178 564ft 110kts
16-May-20 00:52 32.910002 -97.025997 178 564ft 110kts
16-May-20 00:53 32.910002 -97.025997 178 564ft 110kts
16-May-20 00:54 32.910002 -97.025997 178 564ft 110kts
16-May-20 00:55 32.910002 -97.025997 178 564ft 110kts
16-May-20 00:56 32.910002 -97.025997 178 564ft 110kts
16-May-20 00:57 32.910002 -97.025997 178 564ft 110kts
16-May-20 00:58 32.910002 -97.025997 178 564ft 110kts
16-May-20 00:59 32.910002 -97.025997 178 564ft 110kts
16-May-20 01:00 32.910002 -97.025997 178 564ft 110kts
16-May-20 01:01 32.910002 -97.025997 178 564ft 110kts
16-May-20 01:02 32.910002 -97.025997 178 564ft 110kts
16-May-20 01:03 32.910002 -97.025997 178 564ft 110kts
16-May-20 01:04 32.910002 -97.025997 178 564ft 110kts
16-May-20 01:05 32.910002 -97.025997 178 564ft 110kts
16-May-20 01:06 32.910002 -97.025997 178 564ft 110kts
16-May-20 01:07 32.910002 -97.025997 178 564ft 110kts
16-May-20 01:08 32.910002 -97.025997 178 564ft 110kts
16-May-20 01:09 32.910002 -97.025997 178 564ft 110kts
16-May-20 01:10 32.910002 -97.025997 178 564ft 110kts
16-May-20 01:11 32.910002 -97.025997 178 564ft 110kts
16-May-20 01:12 32.910002 -97.025997 178 564ft 110kts
16-May-20 01:13 32.910002 -97.025997 178 564ft 110kts
16-May-20 01:14 32.910002 -97.025997 178 564ft 110kts
16-May-20 01:15 32.910002 -97.025997 178 564ft 110kts
16-May-20 01:16 32.910002 -97.025997 178 564ft 110kts
16-May-20 01:17 32.910002 -97.025997 178 564ft 110kts
16-May-20 01:18 32.910002 -97.025997 178 564ft 110kts
16-May-20 01:19 32.910002 -97.025997 178 564ft 110kts
16-May-20 01:20 32.910002 -97.025997 178 564ft 110kts
16-May-20 01:21 32.910002 -97.025997 178 564ft 110kts
16-May-20 01:22 32.910002 -97.025997 178 564ft 110kts
16-May-20 01:23 32.910002 -97.025997 178 564ft 110kts
16-May-20 01:24 32.910002 -97.025997 178 564ft 110kts
16-May-20 01:25 32.910002 -97.025997 178 564ft 110kts
16-May-20 01:26 32.910002 -97.025997 178 564ft 110kts
16-May-20 01:27 32.910002 -97.025997 178 564ft 110kts
16-May-20 01:28 32.910002 -97.025997 178 564ft 110kts
16-May-20 01:30 32.910002 -97.025997 178 564ft 110kts
16-May-20 01:31 32.910002 -97.025997 178 564ft 110kts
16-May-20 01:32 32.910002 -97.025997 178 564ft 110kts
16-May-20 01:33 32.910002 -97.025997 178 564ft 110kts
16-May-20 01:34 32.910002 -97.025997 178 564ft 110kts
16-May-20 01:35 32.910002 -97.025997 178 564ft 110kts
16-May-20 01:36 32.910002 -97.025997 178 564ft 110kts
16-May-20 01:37 32.910002 -97.025997 178 564ft 110kts
16-May-20 01:38 32.910002 -97.025997 178 564ft 110kts
16-May-20 01:39 32.910002 -97.025997 178 564ft 110kts
16-May-20 01:40 32.910002 -97.025997 178 564ft 110kts
16-May-20 01:41 32.910002 -97.025997 178 564ft 110kts
16-May-20 01:42 32.910002 -97.025997 178 564ft 110kts
16-May-20 01:43 32.910002 -97.025997 178 564ft 110kts
16-May-20 01:44 32.910002 -97.025997 178 564ft 110kts
16-May-20 01:45 32.910002 -97.025997 178 564ft 110kts
16-May-20 01:46 32.910002 -97.025997 178 564ft 110kts
16-May-20 01:46 32.910002 -97.025997 178 564ft 110kts
16-May-20 01:48 32.910002 -97.025997 178 564ft 110kts
16-May-20 01:48 32.910002 -97.025997 178 564ft 110kts
16-May-20 01:50 32.910002 -97.025997 178 564ft 110kts
16-May-20 01:50 32.910002 -97.025997 178 564ft 110kts
16-May-20 01:51 32.910002 -97.025997 178 564ft 110kts
16-May-20 01:52 32.910002 -97.025997 178 564ft 110kts
16-May-20 01:53 32.910002 -97.025997 178 564ft 110kts
16-May-20 01:54 32.910002 -97.025997 178 564ft 110kts
16-May-20 01:55 32.910002 -97.025997 178 564ft 110kts
16-May-20 01:56 32.910002 -97.025997 178 564ft 110kts
16-May-20 01:57 32.910002 -97.025997 178 564ft 110kts
16-May-20 01:58 32.910002 -97.025997 178 564ft 110kts
16-May-20 01:59 32.910002 -97.025997 178 564ft 110kts
16-May-20 02:00 32.910002 -97.025997 178 564ft 110kts
16-May-20 02:01 32.910002 -97.025997 178 564ft 110kts
16-May-20 02:02 32.910002 -97.025997 178 564ft 110kts
16-May-20 02:03 32.910002 -97.025997 178 564ft 110kts
16-May-20 02:04 32.910002 -97.025997 178 564ft 110kts
16-May-20 02:05 32.910002 -97.025997 178 564ft 110kts
16-May-20 02:06 32.910002 -97.025997 178 564ft 110kts
16-May-20 02:07 32.910002 -97.025997 178 564ft 110kts
16-May-20 02:08 32.910002 -97.025997 178 564ft 110kts
16-May-20 02:09 32.910002 -97.025997 178 564ft 110kts
16-May-20 02:10 32.910002 -97.025997 178 564ft 110kts
16-May-20 02:11 32.910002 -97.025997 178 564ft 110kts
16-May-20 02:12 32.910002 -97.025997 178 564ft 110kts
16-May-20 02:13 32.910002 -97.025997 178 564ft 110kts
16-May-20 02:14 32.910002 -97.025997 178 564ft 110kts
16-May-20 02:15 32.910002 -97.025997 178 564ft 110kts
16-May-20 02:16 32.910002 -97.025997 178 564ft 110kts
16-May-20 02:17 32.910002 -97.025997 178 564ft 110kts
16-May-20 02:18 32.910002 -97.025997 178 564ft 110kts
16-May-20 02:19 32.910002 -97.025997 178 564ft 110kts
16-May-20 02:20 32.910002 -97.025997 178 564ft 110kts
16-May-20 02:21 32.910002 -97.025997 178 564ft 110kts
16-May-20 02:22 32.910002 -97.025997 178 564ft 110kts
16-May-20 02:23 32.910002 -97.025997 178 564ft 110kts
16-May-20 02:24 32.910002 -97.025997 178 564ft 110kts
16-May-20 02:25 32.910002 -97.025997 178 564ft 110kts
16-May-20 02:26 32.910002 -97.025997 178 564ft 110kts
16-May-20 02:27 32.910002 -97.025997 178 564ft 110kts
16-May-20 02:28 32.910002 -97.025997 178 564ft 110kts
16-May-20 02:29 32.910002 -97.025997 178 564ft 110kts
16-May-20 02:30 32.910002 -97.025997 178 564ft 110kts
16-May-20 02:31 32.910002 -97.025997 178 564ft 110kts
16-May-20 02:32 32.910002 -97.025997 178 564ft 110kts
16-May-20 02:33 32.910002 -97.025997 178 564ft 110kts
16-May-20 02:34 32.910002 -97.025997 178 564ft 110kts
16-May-20 02:35 32.910002 -97.025997 178 564ft 110kts
16-May-20 02:36 32.910002 -97.025997 178 564ft 110kts
16-May-20 02:37 32.910002 -97.025997 178 564ft 110kts
16-May-20 02:38 32.910002 -97.025997 178 564ft 110kts
16-May-20 02:39 32.910002 -97.025997 178 564ft 110kts
16-May-20 02:40 32.910002 -97.025997 178 564ft 110kts
16-May-20 02:41 32.910002 -97.025997 178 564ft 110kts
16-May-20 02:42 32.910002 -97.025997 178 564ft 110kts
16-May-20 02:43 32.910002 -97.025997 178 564ft 110kts
16-May-20 02:44 32.910002 -97.025997 178 564ft 110kts
16-May-20 02:45 32.910002 -97.025997 178 564ft 110kts
16-May-20 02:46 32.910002 -97.025997 178 564ft 110kts
16-May-20 02:47 32.910002 -97.025997 178 564ft 110kts
16-May-20 02:48 32.910002 -97.025997 178 564ft 110kts
16-May-20 02:49 32.910002 -97.025997 178 564ft 110kts
16-May-20 02:50 32.910002 -97.025997 178 564ft 110kts
16-May-20 02:51 32.910002 -97.025997 178 564ft 110kts
16-May-20 02:52 32.910002 -97.025997 178 564ft 110kts
16-May-20 02:53 32.910002 -97.025997 178 564ft 110kts
16-May-20 02:54 32.910002 -97.025997 178 564ft 110kts
16-May-20 02:55 32.910002 -97.025997 178 564ft 110kts
16-May-20 02:56 32.910002 -97.025997 178 564ft 110kts
16-May-20 02:57 32.910002 -97.025997 178 564ft 110kts
16-May-20 02:58 32.910002 -97.025997 178 564ft 110kts
16-May-20 02:59 32.910002 -97.025997 178 564ft 110kts
16-May-20 03:00 32.910002 -97.025997 178 564ft 110kts
16-May-20 03:01 32.910002 -97.025997 178 564ft 110kts
16-May-20 03:02 32.910002 -97.025997 178 564ft 110kts
16-May-20 03:03 32.910002 -97.025997 178 564ft 110kts
16-May-20 03:04 32.910002 -97.025997 178 564ft 110kts
16-May-20 03:05 32.910002 -97.025997 178 564ft 110kts
16-May-20 03:06 32.910002 -97.025997 178 564ft 110kts
16-May-20 03:07 32.910002 -97.025997 178 564ft 110kts
16-May-20 03:08 32.910002 -97.025997 178 564ft 110kts
16-May-20 03:09 32.910002 -97.025997 178 564ft 110kts
16-May-20 03:10 32.910002 -97.025997 178 564ft 110kts
16-May-20 03:11 32.910002 -97.025997 178 564ft 110kts
16-May-20 03:12 32.910002 -97.025997 178 564ft 110kts
16-May-20 03:13 32.910002 -97.025997 178 564ft 110kts
16-May-20 03:14 32.910002 -97.025997 178 564ft 110kts
16-May-20 03:15 32.910002 -97.025997 178 564ft 110kts
16-May-20 03:16 32.910002 -97.025997 178 564ft 110kts
16-May-20 03:17 32.910002 -97.025997 178 564ft 110kts
16-May-20 03:18 32.910002 -97.025997 178 564ft 110kts
16-May-20 03:19 32.910002 -97.025997 178 564ft 110kts
16-May-20 03:20 32.910002 -97.025997 178 564ft 110kts
16-May-20 03:21 32.910002 -97.025997 178 564ft 110kts
16-May-20 03:22 32.910002 -97.025997 178 564ft 110kts
16-May-20 03:23 32.910002 -97.025997 178 564ft 110kts
16-May-20 03:24 32.910002 -97.025997 178 564ft 110kts
16-May-20 03:25 32.910002 -97.025997 178 564ft 110kts
16-May-20 03:26 32.910002 -97.025997 178 564ft 110kts
16-May-20 03:27 32.910002 -97.025997 178 564ft 110kts
16-May-20 03:28 32.910002 -97.025997 178 564ft 110kts
16-May-20 03:29 32.910002 -97.025997 178 564ft 110kts
16-May-20 03:30 32.910002 -97.025997 178 564ft 110kts
16-May-20 03:31 32.910002 -97.025997 178 564ft 110kts
16-May-20 03:32 32.910002 -97.025997 178 564ft 110kts
16-May-20 03:34 32.910002 -97.025997 178 564ft 110kts
16-May-20 03:35 32.910002 -97.025997 178 564ft 110kts
16-May-20 03:36 32.910002 -97.025997 178 564ft 110kts
16-May-20 03:37 32.910002 -97.025997 178 564ft 110kts
16-May-20 03:38 32.910002 -97.025997 178 564ft 110kts
16-May-20 03:39 32.910002 -97.025997 178 564ft 110kts
16-May-20 03:40 32.910002 -97.025997 178 564ft 110kts
16-May-20 03:41 32.910002 -97.025997 178 564ft 110kts
16-May-20 03:42 32.910002 -97.025997 178 564ft 110kts
16-May-20 03:43 32.910002 -97.025997 178 564ft 110kts
16-May-20 03:44 32.910002 -97.025997 178 564ft 110kts
16-May-20 03:45 32.910002 -97.025997 178 564ft 110kts
16-May-20 03:46 32.910002 -97.025997 178 564ft 110kts
16-May-20 03:47 32.910002 -97.025997 178 564ft 110kts
16-May-20 03:48 32.910002 -97.025997 178 564ft 110kts
16-May-20 03:49 32.910002 -97.025997 178 564ft 110kts
16-May-20 03:49 32.910002 -97.025997 178 564ft 110kts
16-May-20 03:51 32.910002 -97.025997 178 564ft 110kts
16-May-20 03:51 32.910002 -97.025997 178 564ft 110kts
16-May-20 03:53 32.910002 -97.025997 178 564ft 110kts
16-May-20 03:53 32.910002 -97.025997 178 564ft 110kts
16-May-20 03:54 32.910002 -97.025997 178 564ft 110kts
16-May-20 03:55 32.910002 -97.025997 178 564ft 110kts
16-May-20 03:56 32.910002 -97.025997 178 564ft 110kts
16-May-20 03:57 32.910002 -97.025997 178 564ft 110kts
16-May-20 03:58 32.910002 -97.025997 178 564ft 110kts
16-May-20 03:59 32.910002 -97.025997 178 564ft 110kts
16-May-20 04:00 32.910002 -97.025997 178 564ft 110kts
16-May-20 04:01 32.910002 -97.025997 178 564ft 110kts
16-May-20 04:02 32.910002 -97.025997 178 564ft 110kts
16-May-20 04:03 32.910002 -97.025997 178 564ft 110kts
16-May-20 04:04 32.910002 -97.025997 178 564ft 110kts
16-May-20 04:05 32.910002 -97.025997 178 564ft 110kts
16-May-20 04:06 32.910002 -97.025997 178 564ft 110kts
16-May-20 04:07 32.910002 -97.025997 178 564ft 110kts
16-May-20 04:08 32.910002 -97.025997 178 564ft 110kts
16-May-20 04:09 32.910002 -97.025997 178 564ft 110kts
16-May-20 04:10 32.910002 -97.025997 178 564ft 110kts
16-May-20 04:11 32.910002 -97.025997 178 564ft 110kts
16-May-20 04:12 32.910002 -97.025997 178 564ft 110kts
16-May-20 04:13 32.910002 -97.025997 178 564ft 110kts
16-May-20 04:14 32.910002 -97.025997 178 564ft 110kts
16-May-20 04:15 32.910002 -97.025997 178 564ft 110kts
16-May-20 04:16 32.910002 -97.025997 178 564ft 110kts
16-May-20 04:17 32.910002 -97.025997 178 564ft 110kts
16-May-20 04:18 32.910002 -97.025997 178 564ft 110kts
16-May-20 04:19 32.910002 -97.025997 178 564ft 110kts
16-May-20 04:20 32.910002 -97.025997 178 564ft 110kts
16-May-20 04:21 32.910002 -97.025997 178 564ft 110kts
16-May-20 04:22 32.910002 -97.025997 178 564ft 110kts
16-May-20 04:23 32.910002 -97.025997 178 564ft 110kts
16-May-20 04:24 32.910002 -97.025997 178 564ft 110kts
16-May-20 04:25 32.910002 -97.025997 178 564ft 110kts
16-May-20 04:26 32.910002 -97.025997 178 564ft 110kts
16-May-20 04:27 32.910002 -97.025997 178 564ft 110kts
16-May-20 04:28 32.910002 -97.025997 178 564ft 110kts
16-May-20 04:29 32.910002 -97.025997 178 564ft 110kts
16-May-20 04:30 32.910002 -97.025997 178 564ft 110kts
16-May-20 04:31 32.910002 -97.025997 178 564ft 110kts
16-May-20 04:32 32.910002 -97.025997 178 564ft 110kts
16-May-20 04:33 32.910002 -97.025997 178 564ft 110kts
16-May-20 04:34 32.910002 -97.025997 178 564ft 110kts
16-May-20 04:35 32.910002 -97.025997 178 564ft 110kts
16-May-20 04:36 32.910002 -97.025997 178 564ft 110kts
16-May-20 04:37 32.910002 -97.025997 178 564ft 110kts
16-May-20 04:38 32.910002 -97.025997 178 564ft 110kts
16-May-20 04:39 32.910002 -97.025997 178 564ft 110kts
16-May-20 04:40 32.910002 -97.025997 178 564ft 110kts
16-May-20 04:41 32.910002 -97.025997 178 564ft 110kts
16-May-20 04:42 32.910002 -97.025997 178 564ft 110kts
16-May-20 04:43 32.910002 -97.025997 178 564ft 110kts
16-May-20 04:44 32.910002 -97.025997 178 564ft 110kts
16-May-20 04:45 32.910002 -97.025997 178 564ft 110kts
16-May-20 04:46 32.910002 -97.025997 178 564ft 110kts
16-May-20 04:47 32.910002 -97.025997 178 564ft 110kts
16-May-20 04:48 32.910002 -97.025997 178 564ft 110kts
16-May-20 04:49 32.910002 -97.025997 178 564ft 110kts
16-May-20 04:50 32.910002 -97.025997 178 564ft 110kts
16-May-20 04:51 32.910002 -97.025997 178 564ft 110kts
16-May-20 04:52 32.910002 -97.025997 178 564ft 110kts
16-May-20 04:53 32.910002 -97.025997 178 564ft 110kts
16-May-20 04:54 32.910002 -97.025997 178 564ft 110kts
16-May-20 04:55 32.910002 -97.025997 178 564ft 110kts
16-May-20 04:56 32.910002 -97.025997 178 564ft 110kts
16-May-20 04:57 32.910002 -97.025997 178 564ft 110kts
16-May-20 04:58 32.910002 -97.025997 178 564ft 110kts
16-May-20 04:59 32.910002 -97.025997 178 564ft 110kts
16-May-20 05:00 32.910002 -97.025997 178 564ft 110kts
16-May-20 05:01 32.910002 -97.025997 178 564ft 110kts
16-May-20 05:02 32.910002 -97.025997 178 564ft 110kts
16-May-20 05:03 32.910002 -97.025997 178 564ft 110kts
16-May-20 05:04 32.910002 -97.025997 178 564ft 110kts
16-May-20 05:05 32.910002 -97.025997 178 564ft 110kts
16-May-20 05:06 32.910002 -97.025997 178 564ft 110kts
16-May-20 05:07 32.910002 -97.025997 178 564ft 110kts
16-May-20 05:08 32.910002 -97.025997 178 564ft 110kts
16-May-20 05:09 32.910002 -97.025997 178 564ft 110kts
16-May-20 05:10 32.910002 -97.025997 178 564ft 110kts
16-May-20 05:11 32.910002 -97.025997 178 564ft 110kts
16-May-20 05:12 32.910002 -97.025997 178 564ft 110kts
16-May-20 05:13 32.910002 -97.025997 178 564ft 110kts
16-May-20 05:14 32.910002 -97.025997 178 564ft 110kts
16-May-20 05:15 32.910002 -97.025997 178 564ft 110kts
16-May-20 05:16 32.910002 -97.025997 178 564ft 110kts
16-May-20 05:17 32.910002 -97.025997 178 564ft 110kts
16-May-20 05:18 32.910002 -97.025997 178 564ft 110kts
16-May-20 05:19 32.910002 -97.025997 178 564ft 110kts
16-May-20 05:20 32.910002 -97.025997 178 564ft 110kts
16-May-20 05:21 32.910002 -97.025997 178 564ft 110kts
16-May-20 05:22 32.910002 -97.025997 178 564ft 110kts
16-May-20 05:23 32.910002 -97.025997 178 564ft 110kts
16-May-20 05:24 32.910002 -97.025997 178 564ft 110kts
16-May-20 05:25 32.910002 -97.025997 178 564ft 110kts
16-May-20 05:26 32.910002 -97.025997 178 564ft 110kts
16-May-20 05:27 32.910002 -97.025997 178 564ft 110kts
16-May-20 05:28 32.910002 -97.025997 178 564ft 110kts
16-May-20 05:29 32.910002 -97.025997 178 564ft 110kts
16-May-20 05:30 32.910002 -97.025997 178 564ft 110kts
16-May-20 05:31 32.910002 -97.025997 178 564ft 110kts
16-May-20 05:32 32.910002 -97.025997 178 564ft 110kts
16-May-20 05:33 32.910002 -97.025997 178 564ft 110kts
16-May-20 05:34 32.910002 -97.025997 178 564ft 110kts
16-May-20 05:36 32.910002 -97.025997 178 564ft 110kts
16-May-20 05:37 32.910002 -97.025997 178 564ft 110kts
16-May-20 05:38 32.910002 -97.025997 178 564ft 110kts
16-May-20 05:39 32.910002 -97.025997 178 564ft 110kts
16-May-20 05:40 32.910002 -97.025997 178 564ft 110kts
16-May-20 05:41 32.910002 -97.025997 178 564ft 110kts
16-May-20 05:42 32.910002 -97.025997 178 564ft 110kts
16-May-20 05:43 32.910002 -97.025997 178 564ft 110kts
16-May-20 05:44 32.910002 -97.025997 178 564ft 110kts
16-May-20 05:45 32.910002 -97.025997 178 564ft 110kts
16-May-20 05:46 32.910002 -97.025997 178 564ft 110kts
16-May-20 05:47 32.910002 -97.025997 178 564ft 110kts
16-May-20 05:48 32.910002 -97.025997 178 564ft 110kts
16-May-20 05:49 32.910002 -97.025997 178 564ft 110kts
16-May-20 05:50 32.910002 -97.025997 178 564ft 110kts
16-May-20 05:51 32.910002 -97.025997 178 564ft 110kts
16-May-20 05:52 32.910002 -97.025997 178 564ft 110kts
16-May-20 05:53 32.910002 -97.025997 178 564ft 110kts
16-May-20 05:53 32.910002 -97.025997 178 564ft 110kts
16-May-20 05:55 32.910002 -97.025997 178 564ft 110kts
16-May-20 05:55 32.910002 -97.025997 178 564ft 110kts
16-May-20 05:56 32.910002 -97.025997 178 564ft 110kts
16-May-20 05:58 32.910002 -97.025997 178 564ft 110kts
16-May-20 05:58 32.910002 -97.025997 178 564ft 110kts
16-May-20 06:00 32.910002 -97.025997 178 564ft 110kts
16-May-20 06:00 32.910002 -97.025997 178 564ft 110kts
16-May-20 06:01 32.910002 -97.025997 178 564ft 110kts
16-May-20 06:02 32.910002 -97.025997 178 564ft 110kts
16-May-20 06:03 32.910002 -97.025997 178 564ft 110kts
16-May-20 06:04 32.910002 -97.025997 178 564ft 110kts
16-May-20 06:05 32.910002 -97.025997 178 564ft 110kts
16-May-20 06:06 32.910002 -97.025997 178 564ft 110kts
16-May-20 06:07 32.910002 -97.025997 178 564ft 110kts
16-May-20 06:08 32.910002 -97.025997 178 564ft 110kts
16-May-20 06:09 32.910002 -97.025997 178 564ft 110kts
16-May-20 06:10 32.910002 -97.025997 178 564ft 110kts
16-May-20 06:11 32.910002 -97.025997 178 564ft 110kts
16-May-20 06:12 32.910002 -97.025997 178 564ft 110kts
16-May-20 06:13 32.910002 -97.025997 178 564ft 110kts
16-May-20 06:14 32.910002 -97.025997 178 564ft 110kts
16-May-20 06:15 32.910002 -97.025997 178 564ft 110kts
16-May-20 06:16 32.909750 -97.025991 178 564ft 107kts
16-May-20 06:17 32.904652 -97.027172 269 567ft 5kts
16-May-20 06:18 32.906723 -97.035847 221 595ft 0kts
16-May-20 06:19 32.906723 -97.035847 221 595ft 0kts
16-May-20 06:20 32.906723 -97.035847 221 595ft 0kts
16-May-20 06:21 32.906723 -97.035847 221 595ft 0kts
16-May-20 06:22 32.906723 -97.035847 221 595ft 0kts
16-May-20 06:23 32.906723 -97.035847 221 595ft 0kts
16-May-20 06:24 32.906723 -97.035847 221 595ft 0kts
16-May-20 06:25 32.906723 -97.035847 221 595ft 0kts
16-May-20 06:26 32.906723 -97.035847 221 595ft 0kts
16-May-20 06:27 32.906723 -97.035847 221 595ft 0kts
16-May-20 06:28 32.906723 -97.035847 221 595ft 0kts
16-May-20 06:29 32.906723 -97.035847 221 595ft 0kts
16-May-20 06:30 32.906723 -97.035847 221 595ft 0kts
16-May-20 06:31 32.906723 -97.035847 221 595ft 0kts

Navigation Log

Ident Type
Flight plan parsing failed, navigation log unavailable